createdAt,value
2019-04-03T00:04:10.715Z,10.60
2019-04-03T00:09:16.629Z,11.37
2019-04-03T00:14:22.568Z,10.97
2019-04-03T00:19:28.470Z,11.50
2019-04-03T00:24:34.449Z,11.83
2019-04-03T00:29:41.586Z,11.53
2019-04-03T00:34:47.581Z,12.03
2019-04-03T00:39:54.502Z,11.37
2019-04-03T00:45:00.581Z,12.10
2019-04-03T00:50:07.463Z,12.07
2019-04-03T00:55:13.447Z,11.43
2019-04-03T01:00:20.315Z,11.17
2019-04-03T01:05:28.183Z,10.83
2019-04-03T01:10:33.952Z,11.87
2019-04-03T01:15:39.877Z,11.77
2019-04-03T01:20:45.866Z,11.67
2019-04-03T01:25:51.780Z,12.60
2019-04-03T01:30:57.831Z,11.50
2019-04-03T01:36:03.739Z,11.83
2019-04-03T01:41:09.738Z,11.13
2019-04-03T01:46:15.622Z,11.90
2019-04-03T01:51:21.902Z,12.17
2019-04-03T01:56:27.777Z,10.93
2019-04-03T02:01:33.741Z,12.13
2019-04-03T02:06:39.715Z,12.03
2019-04-03T02:11:45.754Z,13.23
2019-04-03T02:16:53.492Z,11.77
2019-04-03T02:21:59.286Z,12.40
2019-04-03T02:27:05.124Z,12.60
2019-04-03T02:32:11.100Z,12.43
2019-04-03T02:37:17.756Z,12.93
2019-04-03T02:42:24.031Z,13.50
2019-04-03T02:47:33.486Z,13.23
2019-04-03T02:52:38.797Z,12.70
2019-04-03T02:57:48.383Z,12.80
2019-04-03T03:02:52.511Z,13.10
2019-04-03T03:07:58.447Z,12.77
2019-04-03T03:13:04.963Z,12.50
2019-04-03T03:18:11.499Z,12.03
2019-04-03T03:23:17.502Z,12.47
2019-04-03T03:28:24.928Z,11.87
2019-04-03T03:33:37.317Z,12.10
2019-04-03T03:38:40.895Z,12.27
2019-04-03T03:43:47.159Z,12.13
2019-04-03T03:48:54.006Z,13.30
2019-04-03T03:54:01.191Z,12.87
2019-04-03T03:59:07.738Z,12.87
2019-04-03T04:04:15.632Z,12.70
2019-04-03T04:09:21.811Z,12.03
2019-04-03T04:14:28.344Z,14.07
2019-04-03T04:19:36.771Z,12.20
2019-04-03T04:24:42.926Z,12.50
2019-04-03T04:29:48.987Z,12.13
2019-04-03T04:34:55.070Z,12.63
2019-04-03T04:40:01.182Z,12.40
2019-04-03T04:45:08.100Z,13.33
2019-04-03T04:50:16.847Z,12.63
2019-04-03T04:55:22.854Z,13.43
2019-04-03T05:00:30.309Z,12.50
2019-04-03T05:05:36.282Z,12.77
2019-04-03T05:10:42.331Z,12.97
2019-04-03T05:15:48.456Z,11.97
2019-04-03T05:20:54.361Z,12.83
2019-04-03T05:26:01.891Z,13.90
2019-04-03T05:31:08.886Z,12.43
2019-04-03T05:36:17.239Z,13.77
2019-04-03T05:41:23.017Z,14.43
2019-04-03T05:46:29.120Z,13.27
2019-04-03T05:51:34.906Z,13.30
2019-04-03T05:56:42.999Z,13.43
2019-04-03T06:01:49.235Z,13.17
2019-04-03T06:06:55.313Z,13.30
2019-04-03T06:12:01.171Z,14.97
2019-04-03T06:17:07.083Z,14.13
2019-04-03T06:22:34.649Z,13.67
2019-04-03T06:27:42.161Z,13.73
2019-04-03T06:32:49.222Z,14.77
2019-04-03T06:37:55.418Z,14.80
2019-04-03T06:43:01.298Z,14.30
2019-04-03T06:48:07.373Z,14.50
2019-04-03T06:53:14.162Z,14.47
2019-04-03T06:58:20.046Z,14.43
2019-04-03T07:03:26.081Z,14.20
2019-04-03T07:08:35.659Z,15.23
2019-04-03T07:13:39.562Z,15.50
2019-04-03T07:18:45.602Z,16.57
2019-04-03T07:23:51.258Z,16.60
2019-04-03T07:28:56.911Z,14.83
2019-04-03T07:34:03.530Z,15.70
2019-04-03T07:39:11.039Z,14.60
2019-04-03T07:44:17.055Z,16.50
2019-04-03T07:49:23.241Z,15.50
2019-04-03T07:54:29.475Z,16.00
2019-04-03T07:59:35.740Z,14.87
2019-04-03T08:04:41.771Z,15.93
2019-04-03T08:09:48.687Z,16.93
2019-04-03T08:14:54.641Z,17.23
2019-04-03T08:20:01.569Z,16.70
2019-04-03T08:25:12.125Z,16.53
2019-04-03T08:30:16.985Z,15.80
2019-04-03T08:35:24.321Z,18.43
2019-04-03T08:40:30.455Z,16.80
2019-04-03T08:45:38.397Z,16.97
2019-04-03T08:50:44.955Z,17.17
2019-04-03T08:55:50.819Z,18.47
2019-04-03T09:00:57.112Z,17.10
2019-04-03T09:06:03.284Z,18.00
2019-04-03T09:11:09.769Z,17.23
2019-04-03T09:16:16.664Z,19.23
2019-04-03T09:21:23.903Z,19.60
2019-04-03T09:26:29.999Z,17.47
2019-04-03T09:31:37.716Z,18.37
2019-04-03T09:36:43.998Z,17.87
2019-04-03T09:41:58.287Z,17.33
2019-04-03T09:47:04.184Z,17.10
2019-04-03T09:52:10.746Z,16.90
2019-04-03T09:57:16.845Z,16.50
2019-04-03T10:02:23.021Z,15.63
2019-04-03T10:07:31.170Z,18.77
2019-04-03T10:12:37.013Z,18.07
2019-04-03T10:17:43.246Z,17.70
2019-04-03T10:22:49.555Z,17.90
2019-04-03T10:27:55.441Z,19.73
2019-04-03T10:33:02.013Z,17.83
2019-04-03T10:38:09.148Z,18.90
2019-04-03T10:43:15.179Z,18.70
2019-04-03T10:48:22.551Z,18.03
2019-04-03T10:53:29.792Z,18.97
2019-04-03T10:58:37.939Z,18.27
2019-04-03T11:03:43.302Z,17.37
2019-04-03T11:08:49.480Z,18.17
2019-04-03T11:13:55.537Z,16.83
2019-04-03T11:19:05.092Z,17.27
2019-04-03T11:24:11.304Z,18.17
2019-04-03T11:29:17.205Z,18.10
2019-04-03T11:34:23.541Z,16.43
2019-04-03T11:39:29.989Z,17.93
2019-04-03T11:44:35.864Z,15.50
2019-04-03T11:49:42.247Z,15.60
2019-04-03T11:54:48.229Z,16.57
2019-04-03T11:59:57.064Z,14.73
2019-04-03T12:05:03.696Z,16.13
2019-04-03T12:10:10.300Z,15.70
2019-04-03T12:15:16.577Z,14.90
2019-04-03T12:20:22.641Z,15.00
2019-04-03T12:25:30.047Z,15.83
2019-04-03T12:30:35.959Z,14.80
2019-04-03T12:35:42.846Z,16.77
2019-04-03T12:40:49.087Z,16.37
2019-04-03T12:45:58.074Z,15.87
2019-04-03T12:51:03.648Z,16.87
2019-04-03T12:56:09.715Z,15.93
2019-04-03T13:01:17.710Z,16.83
2019-04-03T13:06:23.477Z,18.47
2019-04-03T13:11:32.820Z,16.23
2019-04-03T13:16:37.980Z,15.90
2019-04-03T13:21:43.888Z,17.43
2019-04-03T13:26:49.830Z,17.23
2019-04-03T13:31:56.166Z,16.53
2019-04-03T13:37:02.269Z,16.17
2019-04-03T13:42:08.388Z,17.70
2019-04-03T13:47:14.253Z,16.83
2019-04-03T13:52:20.196Z,15.20
2019-04-03T13:57:26.480Z,16.87
2019-04-03T14:02:32.346Z,17.20
2019-04-03T14:07:41.660Z,16.40
2019-04-03T14:12:45.903Z,15.87
2019-04-03T14:17:56.469Z,17.17
2019-04-03T14:23:02.894Z,18.23
2019-04-03T14:28:08.208Z,17.90
2019-04-03T14:33:14.031Z,17.03
2019-04-03T14:38:20.042Z,18.03
2019-04-03T14:43:25.871Z,16.10
2019-04-03T14:48:31.860Z,17.03
2019-04-03T14:53:37.920Z,15.73
2019-04-03T14:58:44.029Z,17.47
2019-04-03T15:03:50.130Z,16.93
2019-04-03T15:08:56.352Z,16.10
2019-04-03T15:14:02.238Z,17.33
2019-04-03T15:19:08.392Z,18.57
2019-04-03T15:24:14.324Z,14.93
2019-04-03T15:29:20.309Z,16.40
2019-04-03T15:34:27.638Z,16.33
2019-04-03T15:39:34.330Z,15.93
2019-04-03T15:44:40.526Z,16.37
2019-04-03T15:49:46.811Z,15.30
2019-04-03T15:54:53.201Z,15.80
2019-04-03T16:00:01.798Z,15.67
2019-04-03T16:05:08.765Z,16.10
2019-04-03T16:10:14.896Z,16.87
2019-04-03T16:15:22.740Z,14.77
2019-04-03T16:20:28.918Z,17.27
2019-04-03T16:25:34.924Z,15.43
2019-04-03T16:30:40.805Z,16.37
2019-04-03T16:35:46.825Z,16.80
2019-04-03T16:40:53.270Z,16.73
2019-04-03T16:45:59.536Z,16.43
2019-04-03T16:51:05.757Z,16.20
2019-04-03T16:56:12.072Z,15.23
2019-04-03T17:01:18.436Z,15.27
2019-04-03T17:06:24.626Z,16.47
2019-04-03T17:11:30.592Z,17.63
2019-04-03T17:16:37.380Z,18.20
2019-04-03T17:21:44.365Z,18.27
2019-04-03T17:26:56.113Z,17.63
2019-04-03T17:31:58.875Z,18.20
2019-04-03T17:37:06.529Z,18.80
2019-04-03T17:42:13.610Z,15.63
2019-04-03T17:47:21.012Z,15.33
2019-04-03T17:52:29.052Z,15.13
2019-04-03T17:57:35.618Z,16.00
2019-04-03T18:02:43.880Z,15.37
2019-04-03T18:07:50.995Z,14.87
2019-04-03T18:13:00.033Z,14.17
2019-04-03T18:18:07.507Z,15.17
2019-04-03T18:23:14.200Z,13.87
2019-04-03T18:28:23.890Z,14.00
2019-04-03T18:33:31.777Z,13.77
2019-04-03T18:38:42.532Z,14.23
2019-04-03T18:43:54.190Z,14.30
2019-04-03T18:49:01.527Z,14.63
2019-04-03T18:54:09.780Z,14.57
2019-04-03T18:59:16.547Z,13.33
2019-04-03T19:04:25.037Z,14.23
2019-04-03T19:09:33.004Z,14.30
2019-04-03T19:14:42.942Z,13.30
2019-04-03T19:19:51.325Z,13.73
2019-04-03T19:25:01.740Z,13.10
2019-04-03T19:30:09.162Z,14.67
2019-04-03T19:41:09.920Z,13.77
2019-04-03T19:46:22.725Z,13.50
2019-04-03T19:51:28.773Z,12.43
2019-04-03T19:56:47.001Z,15.60
2019-04-03T20:01:57.091Z,14.23
2019-04-03T20:07:08.199Z,14.27
2019-04-03T20:12:15.313Z,14.30
2019-04-03T20:17:22.790Z,13.70
2019-04-03T20:22:31.884Z,14.03
2019-04-03T20:27:38.398Z,13.20
2019-04-03T20:32:44.996Z,14.10
2019-04-03T20:37:51.465Z,14.67
2019-04-03T20:42:57.938Z,13.90
2019-04-03T20:48:04.732Z,14.57
2019-04-03T20:53:11.019Z,14.23
2019-04-03T20:58:17.371Z,14.83
2019-04-03T21:03:24.131Z,12.93
2019-04-03T21:08:31.746Z,13.47
2019-04-03T21:13:39.775Z,14.87
2019-04-03T21:18:45.910Z,13.30
2019-04-03T21:23:52.184Z,12.93
2019-04-03T21:28:58.416Z,14.03
2019-04-03T21:34:04.745Z,14.13
2019-04-03T21:39:12.841Z,14.87
2019-04-03T21:44:18.596Z,12.57
2019-04-03T21:49:24.735Z,12.97
2019-04-03T21:54:30.709Z,13.50
2019-04-03T21:59:37.049Z,13.43
2019-04-03T22:04:43.133Z,13.70
2019-04-03T22:09:49.011Z,14.07
2019-04-03T22:14:55.178Z,13.43
2019-04-03T22:20:01.278Z,14.07
2019-04-03T22:25:09.025Z,14.00
2019-04-03T22:30:15.251Z,14.87
2019-04-03T22:35:21.281Z,13.90
2019-04-03T22:40:27.333Z,14.20
2019-04-03T22:45:33.274Z,14.37
2019-04-03T22:50:39.250Z,14.20
2019-04-03T22:55:46.551Z,14.50
2019-04-03T23:00:52.835Z,14.87
2019-04-03T23:05:58.847Z,14.00
2019-04-03T23:11:04.817Z,12.73
2019-04-03T23:16:11.561Z,14.57
2019-04-03T23:21:18.142Z,14.03
2019-04-03T23:26:24.244Z,14.30
2019-04-03T23:31:30.216Z,15.70
2019-04-03T23:36:36.297Z,14.00
2019-04-03T23:41:42.257Z,14.50
2019-04-03T23:46:48.291Z,14.00
2019-04-03T23:51:54.263Z,15.20
2019-04-03T23:57:00.512Z,15.30
